createdAt,value
2018-11-05T00:00:38.533Z,13.28
2018-11-05T00:03:07.249Z,13.65
2018-11-05T00:05:35.742Z,12.53
2018-11-05T00:08:04.338Z,13.80
2018-11-05T00:10:32.701Z,13.60
2018-11-05T00:13:01.093Z,13.15
2018-11-05T00:15:29.431Z,13.38
2018-11-05T00:17:57.811Z,13.10
2018-11-05T00:20:26.191Z,14.05
2018-11-05T00:22:54.551Z,14.05
2018-11-05T00:25:22.955Z,13.30
2018-11-05T00:27:51.327Z,15.35
2018-11-05T00:30:19.717Z,12.82
2018-11-05T00:32:48.090Z,13.38
2018-11-05T00:35:16.447Z,13.70
2018-11-05T00:37:44.814Z,13.75
2018-11-05T00:40:15.237Z,14.50
2018-11-05T00:42:44.196Z,15.43
2018-11-05T00:45:12.955Z,14.23
2018-11-05T00:47:41.829Z,13.80
2018-11-05T00:50:11.902Z,15.23
2018-11-05T00:52:40.319Z,14.85
2018-11-05T00:55:09.618Z,13.40
2018-11-05T00:57:38.048Z,15.45
2018-11-05T01:00:10.035Z,15.63
2018-11-05T01:02:39.335Z,14.28
2018-11-05T01:05:08.635Z,14.98
2018-11-05T01:07:37.031Z,13.30
2018-11-05T01:10:05.959Z,14.20
2018-11-05T01:12:34.372Z,14.40
2018-11-05T01:15:02.753Z,15.20
2018-11-05T01:17:31.102Z,12.82
2018-11-05T01:19:59.503Z,15.35
2018-11-05T01:22:27.825Z,14.68
2018-11-05T01:24:56.212Z,14.93
2018-11-05T01:27:24.562Z,14.75
2018-11-05T01:29:52.955Z,15.32
2018-11-05T01:32:21.239Z,15.85
2018-11-05T01:34:49.647Z,14.73
2018-11-05T01:37:18.220Z,14.40
2018-11-05T01:39:46.589Z,15.48
2018-11-05T01:42:15.030Z,16.20
2018-11-05T01:44:43.401Z,15.50
2018-11-05T01:47:11.785Z,15.88
2018-11-05T01:49:40.209Z,16.45
2018-11-05T01:52:09.050Z,16.02
2018-11-05T01:54:37.489Z,15.90
2018-11-05T01:57:06.045Z,17.57
2018-11-05T01:59:34.431Z,16.55
2018-11-05T02:02:02.791Z,16.37
2018-11-05T02:04:31.165Z,16.40
2018-11-05T02:06:59.525Z,16.70
2018-11-05T02:09:27.930Z,15.90
2018-11-05T02:11:56.294Z,17.45
2018-11-05T02:14:24.675Z,16.60
2018-11-05T02:16:53.102Z,17.50
2018-11-05T02:19:21.473Z,17.07
2018-11-05T02:21:49.877Z,16.77
2018-11-05T02:24:18.249Z,16.23
2018-11-05T02:26:46.644Z,17.67
2018-11-05T02:29:15.020Z,18.12
2018-11-05T02:31:43.387Z,18.60
2018-11-05T02:34:11.780Z,16.95
2018-11-05T02:36:40.129Z,15.60
2018-11-05T02:39:09.415Z,17.60
2018-11-05T02:41:37.759Z,18.32
2018-11-05T02:44:06.489Z,17.12
2018-11-05T02:46:35.281Z,16.67
2018-11-05T02:49:03.651Z,17.62
2018-11-05T02:51:32.043Z,16.48
2018-11-05T02:54:00.471Z,15.48
2018-11-05T02:56:28.833Z,15.28
2018-11-05T02:58:57.181Z,16.25
2018-11-05T03:01:25.565Z,14.28
2018-11-05T03:03:53.922Z,15.48
2018-11-05T03:06:23.059Z,14.65
2018-11-05T03:08:51.448Z,16.07
2018-11-05T03:11:19.854Z,14.70
2018-11-05T03:13:48.255Z,14.75
2018-11-05T03:16:16.658Z,15.35
2018-11-05T03:18:45.118Z,15.40
2018-11-05T03:21:13.464Z,15.70
2018-11-05T03:23:41.844Z,15.25
2018-11-05T03:26:10.582Z,14.43
2018-11-05T03:28:39.055Z,16.23
2018-11-05T03:31:07.504Z,15.30
2018-11-05T03:33:35.903Z,14.75
2018-11-05T03:36:04.599Z,15.32
2018-11-05T03:38:33.033Z,14.90
2018-11-05T03:41:01.450Z,15.68
2018-11-05T03:43:29.834Z,15.13
2018-11-05T03:45:58.230Z,13.60
2018-11-05T03:48:26.554Z,15.83
2018-11-05T03:50:54.924Z,14.13
2018-11-05T03:53:23.350Z,16.37
2018-11-05T03:55:51.794Z,14.35
2018-11-05T03:58:20.106Z,14.80
2018-11-05T04:00:49.570Z,15.00
2018-11-05T04:03:17.963Z,15.85
2018-11-05T04:05:46.296Z,14.25
2018-11-05T04:08:14.776Z,14.55
2018-11-05T04:10:43.192Z,15.43
2018-11-05T04:13:11.589Z,13.48
2018-11-05T04:15:40.042Z,14.75
2018-11-05T04:18:08.390Z,15.50
2018-11-05T04:20:36.834Z,14.30
2018-11-05T04:23:05.401Z,14.65
2018-11-05T04:25:33.886Z,14.40
2018-11-05T04:28:02.392Z,14.25
2018-11-05T04:30:30.716Z,15.15
2018-11-05T04:32:59.090Z,15.03
2018-11-05T04:35:27.500Z,14.18
2018-11-05T04:37:55.938Z,15.08
2018-11-05T04:40:24.327Z,14.47
2018-11-05T04:42:52.816Z,14.33
2018-11-05T04:45:21.226Z,15.48
2018-11-05T04:47:49.689Z,15.20
2018-11-05T04:50:18.175Z,16.07
2018-11-05T04:52:46.555Z,14.65
2018-11-05T04:55:14.982Z,15.53
2018-11-05T04:57:43.463Z,15.10
2018-11-05T05:00:15.258Z,15.75
2018-11-05T05:02:44.167Z,15.63
2018-11-05T05:05:13.625Z,15.68
2018-11-05T05:07:42.248Z,16.15
2018-11-05T05:10:11.199Z,14.65
2018-11-05T05:12:40.675Z,16.35
2018-11-05T05:15:09.580Z,15.70
2018-11-05T05:17:38.330Z,15.20
2018-11-05T05:20:08.772Z,14.90
2018-11-05T05:22:37.300Z,14.98
2018-11-05T05:25:05.818Z,15.15
2018-11-05T05:27:34.279Z,14.10
2018-11-05T05:30:02.667Z,15.15
2018-11-05T05:32:31.078Z,14.55
2018-11-05T05:34:59.499Z,17.62
2018-11-05T05:37:27.918Z,14.30
2018-11-05T05:39:56.350Z,14.95
2018-11-05T05:42:24.774Z,15.63
2018-11-05T05:44:53.434Z,16.02
2018-11-05T05:47:21.866Z,17.12
2018-11-05T05:49:50.270Z,15.72
2018-11-05T05:52:18.674Z,15.90
2018-11-05T05:54:47.038Z,16.07
2018-11-05T05:57:15.442Z,16.60
2018-11-05T05:59:43.861Z,16.40
2018-11-05T06:02:12.222Z,16.65
2018-11-05T06:04:40.645Z,16.27
2018-11-05T06:07:08.998Z,16.05
2018-11-05T06:09:37.585Z,16.85
2018-11-05T06:12:05.976Z,16.93
2018-11-05T06:14:34.451Z,15.70
2018-11-05T06:17:03.139Z,16.57
2018-11-05T06:19:31.534Z,16.00
2018-11-05T06:22:00.066Z,15.88
2018-11-05T06:24:28.344Z,18.67
2018-11-05T06:26:56.710Z,17.70
2018-11-05T06:29:25.132Z,17.20
2018-11-05T06:31:53.543Z,16.75
2018-11-05T06:34:22.161Z,18.73
2018-11-05T06:36:50.511Z,17.70
2018-11-05T06:39:18.894Z,17.37
2018-11-05T06:41:47.336Z,17.45
2018-11-05T06:44:15.752Z,17.25
2018-11-05T06:46:44.068Z,16.15
2018-11-05T06:49:12.469Z,17.42
2018-11-05T06:51:40.798Z,17.65
2018-11-05T06:54:09.174Z,17.82
2018-11-05T06:56:37.596Z,16.62
2018-11-05T06:59:06.128Z,17.45
2018-11-05T07:01:34.510Z,16.67
2018-11-05T07:04:03.618Z,16.87
2018-11-05T07:06:32.092Z,17.05
2018-11-05T07:09:00.540Z,16.02
2018-11-05T07:11:29.215Z,18.45
2018-11-05T07:13:57.474Z,15.48
2018-11-05T07:16:25.824Z,15.88
2018-11-05T07:18:54.411Z,15.58
2018-11-05T07:21:22.598Z,15.83
2018-11-05T07:23:50.967Z,16.32
2018-11-05T07:26:19.357Z,16.60
2018-11-05T07:28:48.318Z,15.90
2018-11-05T07:31:16.683Z,15.45
2018-11-05T07:33:45.231Z,16.35
2018-11-05T07:36:13.609Z,17.40
2018-11-05T07:38:42.351Z,15.95
2018-11-05T07:41:11.701Z,16.82
2018-11-05T07:43:40.207Z,17.60
2018-11-05T07:46:08.697Z,17.40
2018-11-05T07:48:37.155Z,15.83
2018-11-05T07:51:05.665Z,17.95
2018-11-05T07:53:34.100Z,17.02
2018-11-05T07:56:03.631Z,17.73
2018-11-05T07:58:32.232Z,16.67
2018-11-05T08:01:01.710Z,17.35
2018-11-05T08:03:30.165Z,17.12
2018-11-05T08:05:58.679Z,18.60
2018-11-05T08:08:27.421Z,18.30
2018-11-05T08:10:55.887Z,17.80
2018-11-05T08:13:25.299Z,18.15
2018-11-05T08:15:53.681Z,18.50
2018-11-05T08:18:22.166Z,18.35
2018-11-05T08:20:50.505Z,20.17
2018-11-05T08:23:18.871Z,19.35
2018-11-05T08:25:47.260Z,18.62
2018-11-05T08:28:15.619Z,19.30
2018-11-05T08:30:48.070Z,18.42
2018-11-05T08:33:16.397Z,19.32
2018-11-05T08:35:44.801Z,18.65
2018-11-05T08:38:13.719Z,19.70
2018-11-05T08:40:42.063Z,18.40
2018-11-05T08:43:10.413Z,17.98
2018-11-05T08:45:38.817Z,18.40
2018-11-05T08:48:08.154Z,18.60
2018-11-05T08:50:36.522Z,19.35
2018-11-05T08:53:05.267Z,18.67
2018-11-05T08:55:33.983Z,19.30
2018-11-05T08:58:02.353Z,19.40
2018-11-05T09:00:35.963Z,20.97
2018-11-05T09:03:04.703Z,18.45
2018-11-05T09:05:33.211Z,18.90
2018-11-05T09:08:01.591Z,19.63
2018-11-05T09:10:30.928Z,19.70
2018-11-05T09:12:59.130Z,18.77
2018-11-05T09:15:27.500Z,18.92
2018-11-05T09:17:56.188Z,20.57
2018-11-05T09:20:24.581Z,18.20
2018-11-05T09:22:54.008Z,19.97
2018-11-05T09:25:22.400Z,20.00
2018-11-05T09:27:51.096Z,20.47
2018-11-05T09:30:20.726Z,18.93
2018-11-05T09:32:49.081Z,20.13
2018-11-05T09:35:17.467Z,19.90
2018-11-05T09:37:45.845Z,18.77
2018-11-05T09:40:16.457Z,18.07
2018-11-05T09:42:45.498Z,19.75
2018-11-05T09:45:16.081Z,18.97
2018-11-05T09:47:45.215Z,19.47
2018-11-05T09:50:13.901Z,20.00
2018-11-05T09:52:42.299Z,18.30
2018-11-05T09:55:11.679Z,18.30
2018-11-05T09:57:40.222Z,19.63
2018-11-05T10:00:11.839Z,20.90
2018-11-05T10:02:45.635Z,19.60
2018-11-05T10:05:15.056Z,21.40
2018-11-05T10:07:43.624Z,21.82
2018-11-05T10:10:12.889Z,19.20
2018-11-05T10:12:41.324Z,20.23
2018-11-05T10:15:11.382Z,20.53
2018-11-05T10:17:39.990Z,19.83
2018-11-05T10:20:13.151Z,20.33
2018-11-05T10:22:41.596Z,20.67
2018-11-05T10:25:11.019Z,20.30
2018-11-05T10:27:39.327Z,20.10
2018-11-05T10:30:10.254Z,19.20
2018-11-05T10:32:39.329Z,19.03
2018-11-05T10:35:07.659Z,20.97
2018-11-05T10:37:36.698Z,20.37
2018-11-05T10:40:08.109Z,22.00
2018-11-05T10:42:36.449Z,19.37
2018-11-05T10:45:05.481Z,20.10
2018-11-05T10:47:33.919Z,20.73
2018-11-05T10:50:02.258Z,19.30
2018-11-05T10:52:30.634Z,20.50
2018-11-05T10:54:59.677Z,18.77
2018-11-05T10:57:28.589Z,19.70
2018-11-05T10:59:56.976Z,21.80
2018-11-05T11:02:30.613Z,19.83
2018-11-05T11:04:58.991Z,19.30
2018-11-05T11:07:27.410Z,20.93
2018-11-05T11:09:55.812Z,19.17
2018-11-05T11:12:24.159Z,19.77
2018-11-05T11:14:52.638Z,21.20
2018-11-05T11:17:21.008Z,19.97
2018-11-05T11:19:49.381Z,19.30
2018-11-05T11:22:17.770Z,19.67
2018-11-05T11:24:46.146Z,19.30
2018-11-05T11:27:14.540Z,18.13
2018-11-05T11:29:42.892Z,19.27
2018-11-05T11:32:11.277Z,20.30
2018-11-05T11:34:39.681Z,19.67
2018-11-05T11:37:08.210Z,20.53
2018-11-05T11:39:37.327Z,20.13
2018-11-05T11:42:05.751Z,19.80
2018-11-05T11:44:34.952Z,20.40
2018-11-05T11:47:03.340Z,19.67
2018-11-05T11:49:31.735Z,19.93
2018-11-05T11:52:00.070Z,18.70
2018-11-05T11:54:28.458Z,18.43
2018-11-05T11:56:57.433Z,20.57
2018-11-05T11:59:25.818Z,20.47
2018-11-05T12:01:59.669Z,19.90
2018-11-05T12:04:28.055Z,20.97
2018-11-05T12:06:56.451Z,20.87
2018-11-05T12:09:24.851Z,19.50
2018-11-05T12:11:53.251Z,20.47
2018-11-05T12:14:21.751Z,19.00
2018-11-05T12:16:50.156Z,20.43
2018-11-05T12:19:18.524Z,20.10
2018-11-05T12:21:46.898Z,19.40
2018-11-05T12:24:15.441Z,19.57
2018-11-05T12:26:43.939Z,20.03
2018-11-05T12:29:12.919Z,19.83
2018-11-05T12:31:42.308Z,20.70
2018-11-05T12:34:10.874Z,20.00
2018-11-05T12:36:39.248Z,19.50
2018-11-05T12:39:08.871Z,18.50
2018-11-05T12:41:37.328Z,19.60
2018-11-05T12:44:06.495Z,20.53
2018-11-05T12:46:34.905Z,19.37
2018-11-05T12:49:03.295Z,18.57
2018-11-05T12:51:31.731Z,17.77
2018-11-05T12:54:00.875Z,20.40
2018-11-05T12:56:29.195Z,20.00
2018-11-05T12:58:57.922Z,19.50
2018-11-05T13:01:26.541Z,19.00
2018-11-05T13:03:54.947Z,17.40
2018-11-05T13:06:23.400Z,19.30
2018-11-05T13:08:51.886Z,19.67
2018-11-05T13:11:20.321Z,17.90
2018-11-05T13:13:48.951Z,20.33
2018-11-05T13:16:17.555Z,19.17
2018-11-05T13:18:46.018Z,18.80
2018-11-05T13:21:14.458Z,18.30
2018-11-05T13:23:45.991Z,19.20
2018-11-05T13:26:16.129Z,18.10
2018-11-05T13:28:44.534Z,18.40
2018-11-05T13:31:13.151Z,18.27
2018-11-05T13:33:42.573Z,19.10
2018-11-05T13:36:11.208Z,18.07
2018-11-05T13:38:39.681Z,17.80
2018-11-05T13:41:08.111Z,18.23
2018-11-05T13:43:37.762Z,18.10
2018-11-05T13:46:06.691Z,18.97
2018-11-05T13:48:35.535Z,18.03
2018-11-05T13:51:03.570Z,19.60
2018-11-05T13:53:32.486Z,20.20
2018-11-05T13:56:01.221Z,18.50
2018-11-05T13:58:29.768Z,19.43
2018-11-05T14:00:58.431Z,19.73
2018-11-05T14:03:27.570Z,17.20
2018-11-05T14:05:55.975Z,18.73
2018-11-05T14:08:25.250Z,19.40
2018-11-05T14:10:54.755Z,18.17
2018-11-05T14:13:23.189Z,19.17
2018-11-05T14:15:51.673Z,18.77
2018-11-05T14:18:20.118Z,18.93
2018-11-05T14:20:48.577Z,18.30
2018-11-05T14:23:17.007Z,19.80
2018-11-05T14:25:46.015Z,17.97
2018-11-05T14:28:14.550Z,20.90
2018-11-05T14:30:42.828Z,19.00
2018-11-05T14:33:11.342Z,19.00
2018-11-05T14:35:39.793Z,17.50
2018-11-05T14:38:08.600Z,20.40
2018-11-05T14:40:37.039Z,18.83
2018-11-05T14:43:08.307Z,17.80
2018-11-05T14:45:36.664Z,19.70
2018-11-05T14:48:05.099Z,20.60
2018-11-05T14:50:33.563Z,18.60
2018-11-05T14:53:02.239Z,19.23
2018-11-05T14:55:30.753Z,19.80
2018-11-05T14:57:59.763Z,18.80
2018-11-05T15:00:28.971Z,18.87
2018-11-05T15:02:58.444Z,19.17
2018-11-05T15:05:27.014Z,17.10
2018-11-05T15:07:56.603Z,18.93
2018-11-05T15:10:25.751Z,18.60
2018-11-05T15:12:54.216Z,19.90
2018-11-05T15:15:23.244Z,19.53
2018-11-05T15:17:51.598Z,19.30
2018-11-05T15:20:21.447Z,18.60
2018-11-05T15:22:49.839Z,20.00
2018-11-05T15:25:18.728Z,20.70
2018-11-05T15:27:48.474Z,18.30
2018-11-05T15:30:20.064Z,20.20
2018-11-05T15:32:49.357Z,18.77
2018-11-05T15:35:17.820Z,19.13
2018-11-05T15:37:47.334Z,19.10
2018-11-05T15:40:17.918Z,17.80
2018-11-05T15:42:46.616Z,17.93
2018-11-05T15:45:16.287Z,19.07
2018-11-05T15:47:44.949Z,18.70
2018-11-05T15:50:14.778Z,19.30
2018-11-05T15:52:44.532Z,19.00
2018-11-05T15:55:13.140Z,18.87
2018-11-05T15:57:41.794Z,19.97
2018-11-05T16:00:22.419Z,19.53
2018-11-05T16:02:54.629Z,19.80
2018-11-05T16:05:23.203Z,19.63
2018-11-05T16:07:52.396Z,18.97
2018-11-05T16:10:21.172Z,19.50
2018-11-05T16:12:50.411Z,19.00
2018-11-05T16:15:18.895Z,18.50
2018-11-05T16:17:49.297Z,17.57
2018-11-05T16:20:19.941Z,19.40
2018-11-05T16:22:49.979Z,18.30
2018-11-05T16:25:20.161Z,18.13
2018-11-05T16:27:48.991Z,18.07
2018-11-05T16:30:19.482Z,18.07
2018-11-05T16:32:48.535Z,16.87
2018-11-05T16:35:17.278Z,16.37
2018-11-05T16:37:45.679Z,16.93
2018-11-05T16:40:15.397Z,17.77
2018-11-05T16:42:44.467Z,17.50
2018-11-05T16:45:12.933Z,18.60
2018-11-05T16:47:42.101Z,18.10
2018-11-05T16:50:13.472Z,18.23
2018-11-05T16:52:41.845Z,18.77
2018-11-05T16:55:12.092Z,18.83
2018-11-05T16:57:41.707Z,17.87
2018-11-05T17:00:13.706Z,17.23
2018-11-05T17:02:43.268Z,18.57
2018-11-05T17:05:12.599Z,19.20
2018-11-05T17:07:41.589Z,19.70
2018-11-05T17:10:12.197Z,18.83
2018-11-05T17:12:41.525Z,18.67
2018-11-05T17:15:11.665Z,19.47
2018-11-05T17:17:41.157Z,20.40
2018-11-05T17:20:11.362Z,18.83
2018-11-05T17:22:40.207Z,20.20
2018-11-05T17:25:09.136Z,19.73
2018-11-05T17:27:38.327Z,19.93
2018-11-05T17:30:12.715Z,19.90
2018-11-05T17:32:41.527Z,20.47
2018-11-05T17:35:10.051Z,19.70
2018-11-05T17:37:39.547Z,19.27
2018-11-05T17:40:09.976Z,19.80
2018-11-05T17:42:38.533Z,21.20
2018-11-05T17:45:08.059Z,20.60
2018-11-05T17:47:36.665Z,21.37
2018-11-05T17:50:06.487Z,20.57
2018-11-05T17:52:34.941Z,20.97
2018-11-05T17:55:03.387Z,20.70
2018-11-05T17:57:31.831Z,20.97
2018-11-05T18:00:00.368Z,20.50
2018-11-05T18:02:28.922Z,23.80
2018-11-05T18:04:58.230Z,22.37
2018-11-05T18:07:26.723Z,22.73
2018-11-05T18:09:55.567Z,21.27
2018-11-05T18:12:26.196Z,20.93
2018-11-05T18:14:54.746Z,21.50
2018-11-05T18:17:24.224Z,22.70
2018-11-05T18:19:56.049Z,21.93
2018-11-05T18:22:26.143Z,20.67
2018-11-05T18:24:54.952Z,21.67
2018-11-05T18:27:23.414Z,21.33
2018-11-05T18:29:51.925Z,21.60
2018-11-05T18:32:21.797Z,23.50
2018-11-05T18:34:52.100Z,23.43
2018-11-05T18:37:20.851Z,22.23
2018-11-05T18:39:49.580Z,21.70
2018-11-05T18:42:18.015Z,24.37
2018-11-05T18:44:46.569Z,24.87
2018-11-05T18:47:15.211Z,23.50
2018-11-05T18:49:46.873Z,25.20
2018-11-05T18:52:13.627Z,24.30
2018-11-05T18:54:42.410Z,24.40
2018-11-05T18:57:11.430Z,25.30
2018-11-05T18:59:41.316Z,24.17
2018-11-05T19:02:15.259Z,24.57
2018-11-05T19:04:44.451Z,24.30
2018-11-05T19:07:13.131Z,25.00
2018-11-05T19:09:41.875Z,26.40
2018-11-05T19:12:10.460Z,24.47
2018-11-05T19:14:39.175Z,24.47
2018-11-05T19:17:07.995Z,24.77
2018-11-05T19:19:37.156Z,26.05
2018-11-05T19:22:08.092Z,23.93
2018-11-05T19:24:36.875Z,24.10
2018-11-05T19:27:06.198Z,25.53
2018-11-05T19:29:35.407Z,25.72
2018-11-05T19:32:05.216Z,25.43
2018-11-05T19:34:34.410Z,25.50
2018-11-05T19:37:02.974Z,25.97
2018-11-05T19:39:32.949Z,25.23
2018-11-05T19:42:08.027Z,24.20
2018-11-05T19:44:38.283Z,24.63
2018-11-05T19:47:11.255Z,24.93
2018-11-05T19:49:40.306Z,25.97
2018-11-05T19:52:09.680Z,25.70
2018-11-05T19:54:38.262Z,25.17
2018-11-05T19:57:07.220Z,26.50
2018-11-05T19:59:36.354Z,26.55
2018-11-05T20:02:05.748Z,27.00
2018-11-05T20:04:34.531Z,26.68
2018-11-05T20:07:03.720Z,26.75
2018-11-05T20:09:32.899Z,26.05
2018-11-05T20:12:02.738Z,26.73
2018-11-05T20:14:34.619Z,27.17
2018-11-05T20:17:05.062Z,25.17
2018-11-05T20:19:34.494Z,29.48
2018-11-05T20:22:03.117Z,26.27
2018-11-05T20:24:31.674Z,26.67
2018-11-05T20:27:00.613Z,26.60
2018-11-05T20:29:29.180Z,28.27
2018-11-05T20:31:58.720Z,28.27
2018-11-05T20:34:27.779Z,28.45
2018-11-05T20:36:56.292Z,28.73
2018-11-05T20:39:24.873Z,29.67
2018-11-05T20:41:54.126Z,29.02
2018-11-05T20:44:23.352Z,28.52
2018-11-05T20:46:51.986Z,30.43
2018-11-05T20:49:20.494Z,29.70
2018-11-05T20:51:48.975Z,28.65
2018-11-05T20:54:18.680Z,28.50
2018-11-05T20:56:47.202Z,29.90
2018-11-05T20:59:16.060Z,31.10
2018-11-05T21:01:45.660Z,29.90
2018-11-05T21:04:14.780Z,29.30
2018-11-05T21:06:43.406Z,28.80
2018-11-05T21:09:15.815Z,28.90
2018-11-05T21:11:44.424Z,29.40
2018-11-05T21:14:16.274Z,29.52
2018-11-05T21:16:45.823Z,29.82
2018-11-05T21:19:14.997Z,29.07
2018-11-05T21:21:44.326Z,29.75
2018-11-05T21:24:12.627Z,30.17
2018-11-05T21:26:41.165Z,31.12
2018-11-05T21:29:11.144Z,31.60
2018-11-05T21:31:39.785Z,29.85
2018-11-05T21:34:08.422Z,30.75
2018-11-05T21:36:36.903Z,28.85
2018-11-05T21:39:08.590Z,30.27
2018-11-05T21:41:37.040Z,29.23
2018-11-05T21:44:05.786Z,29.35
2018-11-05T21:46:36.016Z,28.42
2018-11-05T21:49:04.664Z,31.57
2018-11-05T21:51:33.606Z,29.50
2018-11-05T21:54:02.277Z,30.95
2018-11-05T21:56:30.685Z,29.05
2018-11-05T21:58:59.441Z,30.15
2018-11-05T22:01:28.387Z,29.07
2018-11-05T22:03:57.451Z,30.27
2018-11-05T22:06:25.999Z,30.60
2018-11-05T22:08:54.443Z,29.90
2018-11-05T22:11:22.904Z,30.37
2018-11-05T22:13:52.373Z,32.33
2018-11-05T22:16:20.817Z,32.67
2018-11-05T22:18:49.385Z,30.17
2018-11-05T22:21:18.023Z,29.87
2018-11-05T22:23:46.392Z,31.13
2018-11-05T22:26:14.802Z,31.57
2018-11-05T22:28:43.804Z,30.75
2018-11-05T22:31:12.187Z,29.50
2018-11-05T22:33:40.714Z,30.25
2018-11-05T22:36:09.162Z,29.02
2018-11-05T22:38:37.522Z,32.28
2018-11-05T22:41:06.871Z,29.63
2018-11-05T22:43:36.956Z,31.37
2018-11-05T22:46:05.751Z,30.90
2018-11-05T22:48:34.214Z,29.85
2018-11-05T22:51:02.609Z,29.27
2018-11-05T22:53:31.042Z,26.40
2018-11-05T22:55:59.515Z,30.60
2018-11-05T22:58:27.871Z,29.25
2018-11-05T23:01:01.534Z,29.57
2018-11-05T23:03:30.629Z,29.07
2018-11-05T23:05:59.369Z,28.47
2018-11-05T23:08:27.961Z,30.15
2018-11-05T23:10:56.596Z,28.35
2018-11-05T23:13:25.020Z,28.87
2018-11-05T23:15:53.407Z,30.65
2018-11-05T23:18:21.861Z,29.90
2018-11-05T23:20:50.232Z,30.95
2018-11-05T23:23:18.585Z,29.10
2018-11-05T23:25:47.016Z,28.52
2018-11-05T23:28:16.334Z,30.17
2018-11-05T23:30:44.702Z,30.60
2018-11-05T23:33:13.128Z,28.17
2018-11-05T23:35:41.464Z,31.23
2018-11-05T23:38:09.859Z,30.02
2018-11-05T23:40:38.460Z,30.48
2018-11-05T23:43:06.794Z,30.45
2018-11-05T23:45:35.180Z,30.80
2018-11-05T23:48:03.956Z,31.42
2018-11-05T23:50:32.359Z,30.15
2018-11-05T23:53:00.748Z,30.35
2018-11-05T23:55:29.137Z,32.23
2018-11-05T23:57:57.865Z,29.25
